Terminal Aerodrome Forecast
Issued by NWS Mt. Holly, NJ

Home | Current Version | Previous Version | Text Only | Print | Product List | Glossary On
Versions: 1 2 3 4 5 6 7 8 9 10 11 12 13 14 15
000
FTUS41 KPHI 251742
TAFTTN
TAF
KTTN 251742Z 2518/2618 VRB04KT P6SM OVC100
     FM252000 34008KT P6SM BKN050
     FM252300 05008KT P6SM BKN035
     FM260300 06010KT P6SM OVC025
     FM260500 06012KT 6SM BR OVC015
     FM261000 07012KT 5SM -DZ BR OVC012
      TEMPO 2610/2614 BKN008=

USA.gov is the U.S. government's official web portal to all federal, state and local government web resources and services.